sensor_id;sensor_type;location;lat;lon;timestamp;temperature;humidity
7234;DHT22;3658;47.992;10.158;2024-02-16T00:01:41;20.70;38.70
7234;DHT22;3658;47.992;10.158;2024-02-16T00:04:08;20.70;38.70
7234;DHT22;3658;47.992;10.158;2024-02-16T00:06:35;20.70;38.70
7234;DHT22;3658;47.992;10.158;2024-02-16T00:09:01;20.70;38.70
7234;DHT22;3658;47.992;10.158;2024-02-16T00:11:30;20.60;38.60
7234;DHT22;3658;47.992;10.158;2024-02-16T00:13:57;20.60;38.60
7234;DHT22;3658;47.992;10.158;2024-02-16T00:16:22;20.60;38.60
7234;DHT22;3658;47.992;10.158;2024-02-16T00:18:49;20.70;38.60
7234;DHT22;3658;47.992;10.158;2024-02-16T00:21:16;20.60;38.50
7234;DHT22;3658;47.992;10.158;2024-02-16T00:23:43;20.60;38.50
7234;DHT22;3658;47.992;10.158;2024-02-16T00:26:09;20.60;38.50
7234;DHT22;3658;47.992;10.158;2024-02-16T00:28:38;20.60;38.50
7234;DHT22;3658;47.992;10.158;2024-02-16T00:31:05;20.60;38.50
7234;DHT22;3658;47.992;10.158;2024-02-16T00:33:32;20.60;38.50
7234;DHT22;3658;47.992;10.158;2024-02-16T00:35:58;20.60;38.50
7234;DHT22;3658;47.992;10.158;2024-02-16T00:38:25;20.60;38.50
7234;DHT22;3658;47.992;10.158;2024-02-16T00:40:52;20.60;38.50
7234;DHT22;3658;47.992;10.158;2024-02-16T00:43:19;20.60;38.50
7234;DHT22;3658;47.992;10.158;2024-02-16T00:45:47;20.60;38.50
7234;DHT22;3658;47.992;10.158;2024-02-16T00:48:14;20.60;38.50
7234;DHT22;3658;47.992;10.158;2024-02-16T00:50:40;20.60;38.50
7234;DHT22;3658;47.992;10.158;2024-02-16T00:53:08;20.60;38.50
7234;DHT22;3658;47.992;10.158;2024-02-16T00:55:35;20.60;38.50
7234;DHT22;3658;47.992;10.158;2024-02-16T00:58:02;20.60;38.40
7234;DHT22;3658;47.992;10.158;2024-02-16T01:00:30;20.60;38.40
7234;DHT22;3658;47.992;10.158;2024-02-16T01:02:58;20.60;38.50
7234;DHT22;3658;47.992;10.158;2024-02-16T01:05:25;20.50;38.40
7234;DHT22;3658;47.992;10.158;2024-02-16T01:07:51;20.50;38.40
7234;DHT22;3658;47.992;10.158;2024-02-16T01:10:18;20.60;38.40
7234;DHT22;3658;47.992;10.158;2024-02-16T01:12:45;20.60;39.10
7234;DHT22;3658;47.992;10.158;2024-02-16T01:15:12;20.50;38.40
7234;DHT22;3658;47.992;10.158;2024-02-16T01:17:38;20.50;38.40
7234;DHT22;3658;47.992;10.158;2024-02-16T01:20:08;20.60;38.50
7234;DHT22;3658;47.992;10.158;2024-02-16T01:22:36;20.50;38.30
7234;DHT22;3658;47.992;10.158;2024-02-16T01:25:04;20.50;38.40
7234;DHT22;3658;47.992;10.158;2024-02-16T01:27:30;20.50;38.40
7234;DHT22;3658;47.992;10.158;2024-02-16T01:29:57;20.50;38.40
7234;DHT22;3658;47.992;10.158;2024-02-16T01:32:25;20.50;38.30
7234;DHT22;3658;47.992;10.158;2024-02-16T01:34:52;20.50;38.30
7234;DHT22;3658;47.992;10.158;2024-02-16T01:37:20;20.50;38.40
7234;DHT22;3658;47.992;10.158;2024-02-16T01:39:46;20.50;38.40
7234;DHT22;3658;47.992;10.158;2024-02-16T01:42:13;20.50;38.30
7234;DHT22;3658;47.992;10.158;2024-02-16T01:44:40;20.50;38.30
7234;DHT22;3658;47.992;10.158;2024-02-16T01:47:06;20.50;38.30
7234;DHT22;3658;47.992;10.158;2024-02-16T01:49:34;20.50;38.40
7234;DHT22;3658;47.992;10.158;2024-02-16T01:52:00;20.50;38.30
7234;DHT22;3658;47.992;10.158;2024-02-16T01:54:30;20.50;38.30
7234;DHT22;3658;47.992;10.158;2024-02-16T01:56:56;20.50;38.30
7234;DHT22;3658;47.992;10.158;2024-02-16T01:59:23;20.50;38.30
7234;DHT22;3658;47.992;10.158;2024-02-16T02:01:51;20.50;38.30
7234;DHT22;3658;47.992;10.158;2024-02-16T02:04:17;20.50;38.30
7234;DHT22;3658;47.992;10.158;2024-02-16T02:06:45;20.50;38.30
7234;DHT22;3658;47.992;10.158;2024-02-16T02:09:12;20.50;38.30
7234;DHT22;3658;47.992;10.158;2024-02-16T02:11:40;20.50;38.30
7234;DHT22;3658;47.992;10.158;2024-02-16T02:14:07;20.50;38.30
7234;DHT22;3658;47.992;10.158;2024-02-16T02:16:33;20.50;38.30
7234;DHT22;3658;47.992;10.158;2024-02-16T02:19:00;20.50;38.30
7234;DHT22;3658;47.992;10.158;2024-02-16T02:21:27;20.50;38.30
7234;DHT22;3658;47.992;10.158;2024-02-16T02:23:55;20.50;38.40
7234;DHT22;3658;47.992;10.158;2024-02-16T02:26:22;20.50;38.30
7234;DHT22;3658;47.992;10.158;2024-02-16T02:28:49;20.50;38.30
7234;DHT22;3658;47.992;10.158;2024-02-16T02:31:16;20.50;38.20
7234;DHT22;3658;47.992;10.158;2024-02-16T02:33:42;20.50;38.30
7234;DHT22;3658;47.992;10.158;2024-02-16T02:36:09;20.50;38.30
7234;DHT22;3658;47.992;10.158;2024-02-16T02:38:36;20.50;38.30
7234;DHT22;3658;47.992;10.158;2024-02-16T02:41:04;20.50;38.30
7234;DHT22;3658;47.992;10.158;2024-02-16T02:43:31;20.50;38.30
7234;DHT22;3658;47.992;10.158;2024-02-16T02:45:58;20.50;38.30
7234;DHT22;3658;47.992;10.158;2024-02-16T02:48:24;20.50;38.30
7234;DHT22;3658;47.992;10.158;2024-02-16T02:50:51;20.50;38.30
7234;DHT22;3658;47.992;10.158;2024-02-16T02:53:18;20.50;38.30
7234;DHT22;3658;47.992;10.158;2024-02-16T02:55:45;20.50;38.30
7234;DHT22;3658;47.992;10.158;2024-02-16T02:58:13;20.50;38.30
7234;DHT22;3658;47.992;10.158;2024-02-16T03:00:40;20.50;38.30
7234;DHT22;3658;47.992;10.158;2024-02-16T03:03:06;20.50;38.20
7234;DHT22;3658;47.992;10.158;2024-02-16T03:05:33;20.50;38.30
7234;DHT22;3658;47.992;10.158;2024-02-16T03:08:00;20.50;38.30
7234;DHT22;3658;47.992;10.158;2024-02-16T03:10:27;20.40;38.20
7234;DHT22;3658;47.992;10.158;2024-02-16T03:13:00;20.40;38.20
7234;DHT22;3658;47.992;10.158;2024-02-16T03:15:28;20.40;38.20
7234;DHT22;3658;47.992;10.158;2024-02-16T03:17:55;20.40;38.20
7234;DHT22;3658;47.992;10.158;2024-02-16T03:20:22;20.40;38.20
7234;DHT22;3658;47.992;10.158;2024-02-16T03:22:49;20.50;38.30
7234;DHT22;3658;47.992;10.158;2024-02-16T03:25:16;20.40;38.20
7234;DHT22;3658;47.992;10.158;2024-02-16T03:27:43;20.40;38.10
7234;DHT22;3658;47.992;10.158;2024-02-16T03:30:10;20.40;38.20
7234;DHT22;3658;47.992;10.158;2024-02-16T03:32:38;20.40;38.10
7234;DHT22;3658;47.992;10.158;2024-02-16T03:35:06;20.40;38.20
7234;DHT22;3658;47.992;10.158;2024-02-16T03:37:33;20.40;38.20
7234;DHT22;3658;47.992;10.158;2024-02-16T03:39:59;20.40;38.10
7234;DHT22;3658;47.992;10.158;2024-02-16T03:42:26;20.40;38.10
7234;DHT22;3658;47.992;10.158;2024-02-16T03:44:53;20.40;38.20
7234;DHT22;3658;47.992;10.158;2024-02-16T03:47:20;20.40;38.20
7234;DHT22;3658;47.992;10.158;2024-02-16T03:49:48;20.40;38.10
7234;DHT22;3658;47.992;10.158;2024-02-16T03:52:14;20.40;38.20
7234;DHT22;3658;47.992;10.158;2024-02-16T03:54:41;20.40;38.20
7234;DHT22;3658;47.992;10.158;2024-02-16T03:57:09;20.40;38.10
7234;DHT22;3658;47.992;10.158;2024-02-16T03:59:37;20.40;38.80
7234;DHT22;3658;47.992;10.158;2024-02-16T04:02:04;20.40;38.20
7234;DHT22;3658;47.992;10.158;2024-02-16T04:04:31;20.40;38.20
7234;DHT22;3658;47.992;10.158;2024-02-16T04:06:59;20.40;38.20
7234;DHT22;3658;47.992;10.158;2024-02-16T04:09:26;20.40;38.20
7234;DHT22;3658;47.992;10.158;2024-02-16T04:11:53;20.40;38.20
7234;DHT22;3658;47.992;10.158;2024-02-16T04:14:19;20.40;38.20
7234;DHT22;3658;47.992;10.158;2024-02-16T04:16:46;20.40;38.20
7234;DHT22;3658;47.992;10.158;2024-02-16T04:19:13;20.40;38.20
7234;DHT22;3658;47.992;10.158;2024-02-16T04:21:39;20.40;38.20
7234;DHT22;3658;47.992;10.158;2024-02-16T04:24:08;20.40;38.20
7234;DHT22;3658;47.992;10.158;2024-02-16T04:26:34;20.30;38.10
7234;DHT22;3658;47.992;10.158;2024-02-16T04:29:02;20.30;38.10
7234;DHT22;3658;47.992;10.158;2024-02-16T04:31:29;20.30;38.10
7234;DHT22;3658;47.992;10.158;2024-02-16T04:33:56;20.40;38.20
7234;DHT22;3658;47.992;10.158;2024-02-16T04:36:23;20.30;38.10
7234;DHT22;3658;47.992;10.158;2024-02-16T04:38:50;20.30;38.10
7234;DHT22;3658;47.992;10.158;2024-02-16T04:41:19;20.30;38.10
7234;DHT22;3658;47.992;10.158;2024-02-16T04:43:46;20.30;38.10
7234;DHT22;3658;47.992;10.158;2024-02-16T04:46:14;20.30;38.10
7234;DHT22;3658;47.992;10.158;2024-02-16T04:48:41;20.30;38.10
7234;DHT22;3658;47.992;10.158;2024-02-16T04:51:07;20.30;38.70
7234;DHT22;3658;47.992;10.158;2024-02-16T04:53:34;20.30;38.10
7234;DHT22;3658;47.992;10.158;2024-02-16T04:56:01;20.30;38.10
7234;DHT22;3658;47.992;10.158;2024-02-16T04:58:30;20.30;38.10
7234;DHT22;3658;47.992;10.158;2024-02-16T05:00:56;20.30;38.10
7234;DHT22;3658;47.992;10.158;2024-02-16T05:03:23;20.30;38.10
7234;DHT22;3658;47.992;10.158;2024-02-16T05:05:50;20.30;38.10
7234;DHT22;3658;47.992;10.158;2024-02-16T05:08:21;20.30;38.10
7234;DHT22;3658;47.992;10.158;2024-02-16T05:10:48;20.30;38.10
7234;DHT22;3658;47.992;10.158;2024-02-16T05:13:15;20.30;38.10
7234;DHT22;3658;47.992;10.158;2024-02-16T05:15:43;20.30;38.10
7234;DHT22;3658;47.992;10.158;2024-02-16T05:18:13;20.30;38.10
7234;DHT22;3658;47.992;10.158;2024-02-16T05:20:40;20.30;38.10
7234;DHT22;3658;47.992;10.158;2024-02-16T05:23:07;20.30;38.10
7234;DHT22;3658;47.992;10.158;2024-02-16T05:25:33;20.30;38.10
7234;DHT22;3658;47.992;10.158;2024-02-16T05:28:00;20.30;38.10
7234;DHT22;3658;47.992;10.158;2024-02-16T05:30:28;20.30;38.10
7234;DHT22;3658;47.992;10.158;2024-02-16T05:32:56;20.30;38.10
7234;DHT22;3658;47.992;10.158;2024-02-16T05:35:24;20.30;38.10
7234;DHT22;3658;47.992;10.158;2024-02-16T05:37:54;20.30;38.10
7234;DHT22;3658;47.992;10.158;2024-02-16T05:40:21;20.30;38.20
7234;DHT22;3658;47.992;10.158;2024-02-16T05:42:51;20.30;38.10
7234;DHT22;3658;47.992;10.158;2024-02-16T05:45:18;20.30;38.10
7234;DHT22;3658;47.992;10.158;2024-02-16T05:47:45;20.30;38.20
7234;DHT22;3658;47.992;10.158;2024-02-16T05:50:14;20.30;38.10
7234;DHT22;3658;47.992;10.158;2024-02-16T05:52:42;20.30;38.20
7234;DHT22;3658;47.992;10.158;2024-02-16T05:55:09;20.20;38.10
7234;DHT22;3658;47.992;10.158;2024-02-16T05:57:36;20.30;38.10
7234;DHT22;3658;47.992;10.158;2024-02-16T06:00:04;20.20;38.10
7234;DHT22;3658;47.992;10.158;2024-02-16T06:02:32;20.20;38.10
7234;DHT22;3658;47.992;10.158;2024-02-16T06:04:59;20.30;38.10
7234;DHT22;3658;47.992;10.158;2024-02-16T06:07:27;20.30;38.30
7234;DHT22;3658;47.992;10.158;2024-02-16T06:09:54;20.30;39.70
7234;DHT22;3658;47.992;10.158;2024-02-16T06:12:21;20.40;40.10
7234;DHT22;3658;47.992;10.158;2024-02-16T06:14:48;20.40;39.90
7234;DHT22;3658;47.992;10.158;2024-02-16T06:17:15;20.40;39.90
7234;DHT22;3658;47.992;10.158;2024-02-16T06:19:42;20.40;40.00
7234;DHT22;3658;47.992;10.158;2024-02-16T06:22:09;20.40;39.90
7234;DHT22;3658;47.992;10.158;2024-02-16T06:24:37;20.40;39.70
7234;DHT22;3658;47.992;10.158;2024-02-16T06:27:04;20.40;39.80
7234;DHT22;3658;47.992;10.158;2024-02-16T06:29:31;20.40;39.70
7234;DHT22;3658;47.992;10.158;2024-02-16T06:31:58;20.40;39.60
7234;DHT22;3658;47.992;10.158;2024-02-16T06:34:25;20.40;39.80
7234;DHT22;3658;47.992;10.158;2024-02-16T06:36:51;20.40;39.60
7234;DHT22;3658;47.992;10.158;2024-02-16T06:39:18;20.40;39.70
7234;DHT22;3658;47.992;10.158;2024-02-16T06:41:47;20.40;39.80
7234;DHT22;3658;47.992;10.158;2024-02-16T06:44:15;20.40;39.80
7234;DHT22;3658;47.992;10.158;2024-02-16T06:46:42;20.40;40.00
7234;DHT22;3658;47.992;10.158;2024-02-16T06:49:09;20.40;40.30
7234;DHT22;3658;47.992;10.158;2024-02-16T06:51:36;20.40;40.40
7234;DHT22;3658;47.992;10.158;2024-02-16T06:54:03;20.40;40.40
7234;DHT22;3658;47.992;10.158;2024-02-16T06:56:31;20.40;40.10
7234;DHT22;3658;47.992;10.158;2024-02-16T06:58:59;20.40;40.30
7234;DHT22;3658;47.992;10.158;2024-02-16T07:01:25;20.40;40.30
7234;DHT22;3658;47.992;10.158;2024-02-16T07:03:53;20.50;41.40
7234;DHT22;3658;47.992;10.158;2024-02-16T07:06:19;20.50;40.60
7234;DHT22;3658;47.992;10.158;2024-02-16T07:08:47;20.40;40.50
7234;DHT22;3658;47.992;10.158;2024-02-16T07:11:14;20.40;40.30
7234;DHT22;3658;47.992;10.158;2024-02-16T07:13:41;20.40;40.20
7234;DHT22;3658;47.992;10.158;2024-02-16T07:16:10;20.40;40.10
7234;DHT22;3658;47.992;10.158;2024-02-16T07:18:37;20.40;40.20
7234;DHT22;3658;47.992;10.158;2024-02-16T07:21:04;20.40;40.10
7234;DHT22;3658;47.992;10.158;2024-02-16T07:23:31;20.40;40.10
7234;DHT22;3658;47.992;10.158;2024-02-16T07:25:57;20.30;39.90
7234;DHT22;3658;47.992;10.158;2024-02-16T07:28:24;20.30;39.70
7234;DHT22;3658;47.992;10.158;2024-02-16T07:30:51;20.30;39.70
7234;DHT22;3658;47.992;10.158;2024-02-16T07:33:19;20.30;39.60
7234;DHT22;3658;47.992;10.158;2024-02-16T07:35:46;20.30;39.50
7234;DHT22;3658;47.992;10.158;2024-02-16T07:38:13;20.30;39.50
7234;DHT22;3658;47.992;10.158;2024-02-16T07:40:40;20.30;39.50
7234;DHT22;3658;47.992;10.158;2024-02-16T07:43:07;20.30;39.40
7234;DHT22;3658;47.992;10.158;2024-02-16T07:45:34;20.30;39.30
7234;DHT22;3658;47.992;10.158;2024-02-16T07:48:00;20.30;39.30
7234;DHT22;3658;47.992;10.158;2024-02-16T07:50:31;20.30;39.30
7234;DHT22;3658;47.992;10.158;2024-02-16T07:52:58;20.30;39.40
7234;DHT22;3658;47.992;10.158;2024-02-16T07:55:25;20.30;39.30
7234;DHT22;3658;47.992;10.158;2024-02-16T07:57:52;20.30;39.20
7234;DHT22;3658;47.992;10.158;2024-02-16T08:00:19;20.30;39.20
7234;DHT22;3658;47.992;10.158;2024-02-16T08:02:46;20.30;39.20
7234;DHT22;3658;47.992;10.158;2024-02-16T08:05:13;20.30;39.20
7234;DHT22;3658;47.992;10.158;2024-02-16T08:07:41;20.30;39.20
7234;DHT22;3658;47.992;10.158;2024-02-16T08:10:08;20.20;39.00
7234;DHT22;3658;47.992;10.158;2024-02-16T08:12:35;20.30;39.00
7234;DHT22;3658;47.992;10.158;2024-02-16T08:15:05;20.20;39.00
7234;DHT22;3658;47.992;10.158;2024-02-16T08:17:32;20.30;39.10
7234;DHT22;3658;47.992;10.158;2024-02-16T08:19:59;20.30;39.00
7234;DHT22;3658;47.992;10.158;2024-02-16T08:22:26;20.30;39.00
7234;DHT22;3658;47.992;10.158;2024-02-16T08:24:54;20.30;39.00
7234;DHT22;3658;47.992;10.158;2024-02-16T08:27:21;20.30;38.90
7234;DHT22;3658;47.992;10.158;2024-02-16T08:29:47;20.30;39.00
7234;DHT22;3658;47.992;10.158;2024-02-16T08:32:14;20.30;38.90
7234;DHT22;3658;47.992;10.158;2024-02-16T08:34:42;20.30;38.90
7234;DHT22;3658;47.992;10.158;2024-02-16T08:37:08;20.30;38.90
7234;DHT22;3658;47.992;10.158;2024-02-16T08:39:38;20.30;38.90
7234;DHT22;3658;47.992;10.158;2024-02-16T08:42:06;20.20;38.90
7234;DHT22;3658;47.992;10.158;2024-02-16T08:44:34;20.30;38.90
7234;DHT22;3658;47.992;10.158;2024-02-16T08:47:01;20.20;38.80
7234;DHT22;3658;47.992;10.158;2024-02-16T08:49:28;20.20;38.80
7234;DHT22;3658;47.992;10.158;2024-02-16T08:51:56;20.20;38.80
7234;DHT22;3658;47.992;10.158;2024-02-16T08:54:22;20.20;38.70
7234;DHT22;3658;47.992;10.158;2024-02-16T08:56:51;20.20;38.80
7234;DHT22;3658;47.992;10.158;2024-02-16T08:59:19;20.30;38.90
7234;DHT22;3658;47.992;10.158;2024-02-16T09:01:46;20.20;38.80
7234;DHT22;3658;47.992;10.158;2024-02-16T09:04:13;20.20;38.80
7234;DHT22;3658;47.992;10.158;2024-02-16T09:06:41;20.20;38.80
7234;DHT22;3658;47.992;10.158;2024-02-16T09:09:07;20.30;38.80
7234;DHT22;3658;47.992;10.158;2024-02-16T09:11:34;20.30;38.90
7234;DHT22;3658;47.992;10.158;2024-02-16T09:14:01;20.20;38.70
7234;DHT22;3658;47.992;10.158;2024-02-16T09:16:30;20.20;38.80
7234;DHT22;3658;47.992;10.158;2024-02-16T09:18:58;20.20;38.70
7234;DHT22;3658;47.992;10.158;2024-02-16T09:21:25;20.30;38.80
7234;DHT22;3658;47.992;10.158;2024-02-16T09:23:54;20.20;38.80
7234;DHT22;3658;47.992;10.158;2024-02-16T09:26:24;20.20;38.80
7234;DHT22;3658;47.992;10.158;2024-02-16T09:28:52;20.20;38.70
7234;DHT22;3658;47.992;10.158;2024-02-16T09:31:19;20.20;38.80
7234;DHT22;3658;47.992;10.158;2024-02-16T09:33:48;20.30;38.80
7234;DHT22;3658;47.992;10.158;2024-02-16T09:36:17;20.20;38.80
7234;DHT22;3658;47.992;10.158;2024-02-16T09:38:44;20.20;38.80
7234;DHT22;3658;47.992;10.158;2024-02-16T09:41:10;20.20;38.80
7234;DHT22;3658;47.992;10.158;2024-02-16T09:43:37;20.20;38.80
7234;DHT22;3658;47.992;10.158;2024-02-16T09:46:05;20.20;38.80
7234;DHT22;3658;47.992;10.158;2024-02-16T09:48:32;20.20;38.80
7234;DHT22;3658;47.992;10.158;2024-02-16T09:51:00;20.20;38.80
7234;DHT22;3658;47.992;10.158;2024-02-16T09:53:28;20.20;38.80
7234;DHT22;3658;47.992;10.158;2024-02-16T09:55:55;20.20;38.80
7234;DHT22;3658;47.992;10.158;2024-02-16T09:58:22;20.20;38.80
7234;DHT22;3658;47.992;10.158;2024-02-16T10:00:50;20.20;38.70
7234;DHT22;3658;47.992;10.158;2024-02-16T10:03:24;20.20;38.70
7234;DHT22;3658;47.992;10.158;2024-02-16T10:05:51;20.20;38.70
7234;DHT22;3658;47.992;10.158;2024-02-16T10:08:19;20.20;38.70
7234;DHT22;3658;47.992;10.158;2024-02-16T10:10:46;20.20;38.70
7234;DHT22;3658;47.992;10.158;2024-02-16T10:13:15;20.20;38.70
7234;DHT22;3658;47.992;10.158;2024-02-16T10:15:42;20.20;38.70
7234;DHT22;3658;47.992;10.158;2024-02-16T10:18:10;20.20;38.70
7234;DHT22;3658;47.992;10.158;2024-02-16T10:20:38;20.20;38.70
7234;DHT22;3658;47.992;10.158;2024-02-16T10:23:06;20.20;38.70
7234;DHT22;3658;47.992;10.158;2024-02-16T10:25:35;20.20;38.70
7234;DHT22;3658;47.992;10.158;2024-02-16T10:28:05;20.20;38.70
7234;DHT22;3658;47.992;10.158;2024-02-16T10:30:35;20.20;38.70
7234;DHT22;3658;47.992;10.158;2024-02-16T10:33:03;20.30;38.90
7234;DHT22;3658;47.992;10.158;2024-02-16T10:35:30;20.30;39.10
7234;DHT22;3658;47.992;10.158;2024-02-16T10:37:59;20.20;39.00
7234;DHT22;3658;47.992;10.158;2024-02-16T10:40:31;20.20;38.90
7234;DHT22;3658;47.992;10.158;2024-02-16T10:43:01;20.30;38.90
7234;DHT22;3658;47.992;10.158;2024-02-16T10:45:30;20.30;38.90
7234;DHT22;3658;47.992;10.158;2024-02-16T10:47:57;20.30;39.00
7234;DHT22;3658;47.992;10.158;2024-02-16T10:50:24;20.20;38.80
7234;DHT22;3658;47.992;10.158;2024-02-16T10:52:53;20.20;38.80
7234;DHT22;3658;47.992;10.158;2024-02-16T10:55:22;20.20;38.80
7234;DHT22;3658;47.992;10.158;2024-02-16T10:57:49;20.20;38.80
7234;DHT22;3658;47.992;10.158;2024-02-16T11:00:19;20.30;38.90
7234;DHT22;3658;47.992;10.158;2024-02-16T11:02:53;20.20;38.90
7234;DHT22;3658;47.992;10.158;2024-02-16T11:05:32;20.20;39.00
7234;DHT22;3658;47.992;10.158;2024-02-16T11:08:01;20.20;39.20
7234;DHT22;3658;47.992;10.158;2024-02-16T11:10:27;20.20;39.10
7234;DHT22;3658;47.992;10.158;2024-02-16T11:12:54;20.20;39.10
7234;DHT22;3658;47.992;10.158;2024-02-16T11:15:28;20.20;39.00
7234;DHT22;3658;47.992;10.158;2024-02-16T11:17:56;20.20;39.00
7234;DHT22;3658;47.992;10.158;2024-02-16T11:20:24;20.20;39.10
7234;DHT22;3658;47.992;10.158;2024-02-16T11:22:52;20.20;39.10
7234;DHT22;3658;47.992;10.158;2024-02-16T11:25:19;20.20;39.20
7234;DHT22;3658;47.992;10.158;2024-02-16T11:27:47;20.20;39.10
7234;DHT22;3658;47.992;10.158;2024-02-16T11:30:14;20.20;38.90
7234;DHT22;3658;47.992;10.158;2024-02-16T11:32:43;20.20;38.90
7234;DHT22;3658;47.992;10.158;2024-02-16T11:35:12;20.20;38.90
7234;DHT22;3658;47.992;10.158;2024-02-16T11:37:39;20.20;39.00
7234;DHT22;3658;47.992;10.158;2024-02-16T11:40:11;20.20;39.00
7234;DHT22;3658;47.992;10.158;2024-02-16T11:42:38;20.20;39.00
7234;DHT22;3658;47.992;10.158;2024-02-16T11:45:10;20.20;39.00
7234;DHT22;3658;47.992;10.158;2024-02-16T11:47:37;20.20;38.90
7234;DHT22;3658;47.992;10.158;2024-02-16T11:50:06;20.20;38.90
7234;DHT22;3658;47.992;10.158;2024-02-16T11:52:36;20.20;38.90
7234;DHT22;3658;47.992;10.158;2024-02-16T11:55:04;20.20;38.90
7234;DHT22;3658;47.992;10.158;2024-02-16T11:57:31;20.30;39.00
7234;DHT22;3658;47.992;10.158;2024-02-16T11:59:58;20.20;38.90
7234;DHT22;3658;47.992;10.158;2024-02-16T12:02:25;20.20;38.90
7234;DHT22;3658;47.992;10.158;2024-02-16T12:04:57;20.20;38.80
7234;DHT22;3658;47.992;10.158;2024-02-16T12:07:27;20.20;38.80
7234;DHT22;3658;47.992;10.158;2024-02-16T12:09:57;20.20;38.80
7234;DHT22;3658;47.992;10.158;2024-02-16T12:12:24;20.20;38.80
7234;DHT22;3658;47.992;10.158;2024-02-16T12:14:52;20.20;38.90
7234;DHT22;3658;47.992;10.158;2024-02-16T12:17:19;20.30;38.90
7234;DHT22;3658;47.992;10.158;2024-02-16T12:19:46;20.20;38.80
7234;DHT22;3658;47.992;10.158;2024-02-16T12:22:16;20.20;38.80
7234;DHT22;3658;47.992;10.158;2024-02-16T12:24:45;20.20;38.80
7234;DHT22;3658;47.992;10.158;2024-02-16T12:27:12;20.20;38.70
7234;DHT22;3658;47.992;10.158;2024-02-16T12:29:40;20.20;38.70
7234;DHT22;3658;47.992;10.158;2024-02-16T12:32:07;20.20;38.70
7234;DHT22;3658;47.992;10.158;2024-02-16T12:34:34;20.20;38.70
7234;DHT22;3658;47.992;10.158;2024-02-16T12:37:04;20.20;38.70
7234;DHT22;3658;47.992;10.158;2024-02-16T12:39:32;20.20;38.70
7234;DHT22;3658;47.992;10.158;2024-02-16T12:42:00;20.20;38.70
7234;DHT22;3658;47.992;10.158;2024-02-16T12:44:28;20.20;38.80
7234;DHT22;3658;47.992;10.158;2024-02-16T12:46:56;20.20;38.80
7234;DHT22;3658;47.992;10.158;2024-02-16T12:49:22;20.20;38.80
7234;DHT22;3658;47.992;10.158;2024-02-16T12:51:49;20.20;38.70
7234;DHT22;3658;47.992;10.158;2024-02-16T12:54:16;20.20;38.70
7234;DHT22;3658;47.992;10.158;2024-02-16T12:56:44;20.20;38.70
7234;DHT22;3658;47.992;10.158;2024-02-16T12:59:12;20.20;38.70
7234;DHT22;3658;47.992;10.158;2024-02-16T13:01:39;20.20;38.70
7234;DHT22;3658;47.992;10.158;2024-02-16T13:04:07;20.20;38.70
7234;DHT22;3658;47.992;10.158;2024-02-16T13:06:33;20.20;38.70
7234;DHT22;3658;47.992;10.158;2024-02-16T13:09:00;20.20;38.70
7234;DHT22;3658;47.992;10.158;2024-02-16T13:11:27;20.20;38.70
7234;DHT22;3658;47.992;10.158;2024-02-16T13:13:54;20.20;38.70
7234;DHT22;3658;47.992;10.158;2024-02-16T13:16:22;20.20;38.70
7234;DHT22;3658;47.992;10.158;2024-02-16T13:18:49;20.20;38.80
7234;DHT22;3658;47.992;10.158;2024-02-16T13:21:16;20.20;38.80
7234;DHT22;3658;47.992;10.158;2024-02-16T13:23:43;20.20;38.80
7234;DHT22;3658;47.992;10.158;2024-02-16T13:26:09;20.20;38.70
7234;DHT22;3658;47.992;10.158;2024-02-16T13:28:36;20.20;38.70
7234;DHT22;3658;47.992;10.158;2024-02-16T13:31:03;20.20;38.70
7234;DHT22;3658;47.992;10.158;2024-02-16T13:33:31;20.20;38.70
7234;DHT22;3658;47.992;10.158;2024-02-16T13:35:58;20.20;38.70
7234;DHT22;3658;47.992;10.158;2024-02-16T13:38:25;20.20;38.70
7234;DHT22;3658;47.992;10.158;2024-02-16T13:40:51;20.20;38.70
7234;DHT22;3658;47.992;10.158;2024-02-16T13:43:18;20.20;38.70
7234;DHT22;3658;47.992;10.158;2024-02-16T13:45:49;20.20;38.70
7234;DHT22;3658;47.992;10.158;2024-02-16T13:48:16;20.20;38.70
7234;DHT22;3658;47.992;10.158;2024-02-16T13:50:45;20.20;38.70
7234;DHT22;3658;47.992;10.158;2024-02-16T13:53:14;20.20;38.70
7234;DHT22;3658;47.992;10.158;2024-02-16T13:55:41;20.20;38.70
7234;DHT22;3658;47.992;10.158;2024-02-16T13:58:08;20.20;38.70
7234;DHT22;3658;47.992;10.158;2024-02-16T14:00:35;20.20;38.70
7234;DHT22;3658;47.992;10.158;2024-02-16T14:03:02;20.20;38.70
7234;DHT22;3658;47.992;10.158;2024-02-16T14:05:29;20.20;38.70
7234;DHT22;3658;47.992;10.158;2024-02-16T14:07:57;20.20;38.70
7234;DHT22;3658;47.992;10.158;2024-02-16T14:10:24;20.20;38.70
7234;DHT22;3658;47.992;10.158;2024-02-16T14:12:51;20.20;38.70
7234;DHT22;3658;47.992;10.158;2024-02-16T14:15:17;20.20;38.70
7234;DHT22;3658;47.992;10.158;2024-02-16T14:17:44;20.20;38.70
7234;DHT22;3658;47.992;10.158;2024-02-16T14:20:11;20.20;38.70
7234;DHT22;3658;47.992;10.158;2024-02-16T14:22:38;20.20;38.70
7234;DHT22;3658;47.992;10.158;2024-02-16T14:25:06;20.20;38.70
7234;DHT22;3658;47.992;10.158;2024-02-16T14:27:35;20.20;38.70
7234;DHT22;3658;47.992;10.158;2024-02-16T14:30:03;20.20;38.70
7234;DHT22;3658;47.992;10.158;2024-02-16T14:32:30;20.20;38.70
7234;DHT22;3658;47.992;10.158;2024-02-16T14:34:57;20.20;38.70
7234;DHT22;3658;47.992;10.158;2024-02-16T14:37:24;20.20;38.70
7234;DHT22;3658;47.992;10.158;2024-02-16T14:39:50;20.20;38.70
7234;DHT22;3658;47.992;10.158;2024-02-16T14:42:23;20.20;38.70
7234;DHT22;3658;47.992;10.158;2024-02-16T14:44:50;20.10;38.60
7234;DHT22;3658;47.992;10.158;2024-02-16T14:47:17;20.10;38.60
7234;DHT22;3658;47.992;10.158;2024-02-16T14:49:44;20.20;38.70
7234;DHT22;3658;47.992;10.158;2024-02-16T14:52:11;20.20;38.70
7234;DHT22;3658;47.992;10.158;2024-02-16T14:54:38;20.20;38.70
7234;DHT22;3658;47.992;10.158;2024-02-16T14:57:05;20.20;38.70
7234;DHT22;3658;47.992;10.158;2024-02-16T14:59:33;20.10;38.60
7234;DHT22;3658;47.992;10.158;2024-02-16T15:02:00;20.20;38.70
7234;DHT22;3658;47.992;10.158;2024-02-16T15:04:28;20.20;38.70
7234;DHT22;3658;47.992;10.158;2024-02-16T15:06:56;20.10;38.60
7234;DHT22;3658;47.992;10.158;2024-02-16T15:09:22;20.10;38.60
7234;DHT22;3658;47.992;10.158;2024-02-16T15:11:49;20.10;38.60
7234;DHT22;3658;47.992;10.158;2024-02-16T15:14:16;20.10;38.60
7234;DHT22;3658;47.992;10.158;2024-02-16T15:16:44;20.10;38.60
7234;DHT22;3658;47.992;10.158;2024-02-16T15:19:11;20.20;38.70
7234;DHT22;3658;47.992;10.158;2024-02-16T15:21:37;20.10;38.60
7234;DHT22;3658;47.992;10.158;2024-02-16T15:24:05;20.10;38.60
7234;DHT22;3658;47.992;10.158;2024-02-16T15:26:32;20.10;38.60
7234;DHT22;3658;47.992;10.158;2024-02-16T15:28:58;20.10;38.60
7234;DHT22;3658;47.992;10.158;2024-02-16T15:31:25;20.20;38.70
7234;DHT22;3658;47.992;10.158;2024-02-16T15:33:53;20.10;38.60
7234;DHT22;3658;47.992;10.158;2024-02-16T15:36:20;20.10;38.60
7234;DHT22;3658;47.992;10.158;2024-02-16T15:38:47;20.10;38.60
7234;DHT22;3658;47.992;10.158;2024-02-16T15:41:14;20.10;38.60
7234;DHT22;3658;47.992;10.158;2024-02-16T15:43:41;20.10;38.60
7234;DHT22;3658;47.992;10.158;2024-02-16T15:46:08;20.10;38.60